Time;durP1;ratioP1;P1;durP2;ratioP2;P2;SDS_P1;SDS_P2;PMS_P1;PMS_P2;Temp;Humidity;BMP_temperature;BMP_pressure;BME280_temperature;BME280_humidity;BME280_pressure;Samples;Min_cycle;Max_cycle;Signal;HPM_P1;HPM_P2
2022/06/18 00:00:46;;;;;;;1999.90;999.90;;;;;;;;;;5112614;27;20428;-71
2022/06/18 00:03:14;;;;;;;1999.90;999.90;;;;;;;;;;5116846;27;20412;-73
2022/06/18 00:05:43;;;;;;;1999.90;999.90;;;;;;;;;;5121670;27;20400;-73
2022/06/18 00:08:14;;;;;;;1999.90;999.90;;;;;;;;;;5116171;27;20397;-73
2022/06/18 00:10:42;;;;;;;1999.90;999.90;;;;;;;;;;5119177;27;20402;-72
2022/06/18 00:16:09;;;;;;;1999.90;999.90;;;;;;;;;;5108515;27;20889;-73
2022/06/18 00:18:37;;;;;;;1999.90;999.90;;;;;;;;;;5111366;27;20393;-72
2022/06/18 00:21:05;;;;;;;1999.90;999.90;;;;;;;;;;5116204;27;20396;-73
2022/06/18 00:23:37;;;;;;;1999.90;999.90;;;;;;;;;;5116843;27;20417;-73
2022/06/18 00:26:05;;;;;;;1999.90;999.90;;;;;;;;;;5120890;27;20413;-73
2022/06/18 00:28:33;;;;;;;1999.90;999.90;;;;;;;;;;5120103;27;20393;-72
2022/06/18 00:31:01;;;;;;;1999.90;999.90;;;;;;;;;;5116020;27;20397;-72
2022/06/18 00:33:30;;;;;;;1999.90;999.90;;;;;;;;;;5118654;27;20417;-73
2022/06/18 00:36:02;;;;;;;1999.90;999.90;;;;;;;;;;5113737;27;20431;-73
2022/06/18 00:38:31;;;;;;;1999.90;999.90;;;;;;;;;;5117051;27;21332;-72
2022/06/18 00:41:01;;;;;;;1999.90;999.90;;;;;;;;;;5117827;27;20402;-72
2022/06/18 00:43:30;;;;;;;1999.90;999.90;;;;;;;;;;5116803;27;20962;-72
2022/06/18 00:46:03;;;;;;;1999.90;999.90;;;;;;;;;;5119164;27;20393;-72
2022/06/18 00:48:35;;;;;;;1999.90;999.90;;;;;;;;;;5112936;27;20397;-72
2022/06/18 00:51:08;;;;;;;1999.90;999.90;;;;;;;;;;5116891;27;20413;-72
2022/06/18 00:53:42;;;;;;;1999.90;999.90;;;;;;;;;;5117328;27;20416;-74
2022/06/18 00:56:34;;;;;;;1999.90;999.90;;;;;;;;;;5118148;27;20416;-73
2022/06/18 00:59:05;;;;;;;1999.90;999.90;;;;;;;;;;5121424;27;20428;-72
2022/06/18 01:01:34;;;;;;;1999.90;999.90;;;;;;;;;;5125477;27;20435;-72
2022/06/18 01:04:17;;;;;;;1999.90;999.90;;;;;;;;;;5116537;27;20393;-72
2022/06/18 01:06:45;;;;;;;1999.90;999.90;;;;;;;;;;5113759;27;20394;-72
2022/06/18 01:09:14;;;;;;;1999.90;999.90;;;;;;;;;;5110536;27;20454;-72
2022/06/18 01:11:45;;;;;;;1999.90;999.90;;;;;;;;;;5121645;27;20382;-73
2022/06/18 01:14:15;;;;;;;1999.90;999.90;;;;;;;;;;5119064;27;20416;-73
2022/06/18 01:16:43;;;;;;;1999.90;999.90;;;;;;;;;;5103017;27;20382;-74
2022/06/18 01:19:17;;;;;;;1999.90;999.90;;;;;;;;;;5114733;27;20417;-73
2022/06/18 01:21:50;;;;;;;1999.90;999.90;;;;;;;;;;5093265;27;20473;-73
2022/06/18 01:24:21;;;;;;;1999.90;999.90;;;;;;;;;;5126418;27;20401;-73
2022/06/18 01:26:50;;;;;;;1999.90;999.90;;;;;;;;;;5103536;27;20405;-72
2022/06/18 01:29:18;;;;;;;1999.90;999.90;;;;;;;;;;5118501;27;20389;-72
2022/06/18 01:31:48;;;;;;;1999.90;999.90;;;;;;;;;;5116155;27;20386;-73
2022/06/18 01:34:16;;;;;;;1999.90;999.90;;;;;;;;;;5099402;27;21619;-72
2022/06/18 01:36:52;;;;;;;1999.90;999.90;;;;;;;;;;5095769;27;20462;-72
2022/06/18 01:39:24;;;;;;;1999.90;999.90;;;;;;;;;;5093507;27;20935;-72
2022/06/18 01:41:56;;;;;;;1999.90;999.90;;;;;;;;;;5091811;27;20405;-72
2022/06/18 01:44:38;;;;;;;1999.90;999.90;;;;;;;;;;5115376;27;20946;-72
2022/06/18 01:47:08;;;;;;;1999.90;999.90;;;;;;;;;;5117854;27;20413;-73
2022/06/18 01:49:38;;;;;;;1999.90;999.90;;;;;;;;;;5098705;27;20469;-71
2022/06/18 01:52:08;;;;;;;1999.90;999.90;;;;;;;;;;5116420;27;20397;-72
2022/06/18 01:54:42;;;;;;;1999.90;999.90;;;;;;;;;;5116438;27;21455;-72
2022/06/18 01:57:12;;;;;;;1999.90;999.90;;;;;;;;;;5095746;27;20409;-72
2022/06/18 01:59:43;;;;;;;1999.90;999.90;;;;;;;;;;5101623;27;20530;-72
2022/06/18 02:02:12;;;;;;;1999.90;999.90;;;;;;;;;;5099115;27;20970;-72
2022/06/18 02:04:41;;;;;;;1999.90;999.90;;;;;;;;;;5114305;27;20489;-73
2022/06/18 02:07:08;;;;;;;1999.90;999.90;;;;;;;;;;5099564;27;20386;-73
2022/06/18 02:09:37;;;;;;;1999.90;999.90;;;;;;;;;;5114442;27;20787;-72
2022/06/18 02:12:08;;;;;;;1999.90;999.90;;;;;;;;;;5110088;27;20416;-73
2022/06/18 02:14:36;;;;;;;1999.90;999.90;;;;;;;;;;5118211;27;20417;-73
2022/06/18 02:17:06;;;;;;;1999.90;999.90;;;;;;;;;;5118383;27;20481;-73
2022/06/18 02:19:35;;;;;;;1999.90;999.90;;;;;;;;;;5116566;27;20394;-73
2022/06/18 02:22:05;;;;;;;1999.90;999.90;;;;;;;;;;5116848;27;21327;-73
2022/06/18 02:24:33;;;;;;;1999.90;999.90;;;;;;;;;;5116421;27;20494;-73
2022/06/18 02:27:02;;;;;;;1999.90;999.90;;;;;;;;;;5116735;27;20921;-74
2022/06/18 02:29:32;;;;;;;1999.90;999.90;;;;;;;;;;5099893;27;20397;-73
2022/06/18 02:32:02;;;;;;;1999.90;999.90;;;;;;;;;;5113452;27;20409;-72
2022/06/18 02:34:31;;;;;;;1999.90;999.90;;;;;;;;;;5112086;27;20406;-73
2022/06/18 02:37:00;;;;;;;1999.90;999.90;;;;;;;;;;5115013;27;20409;-72
2022/06/18 02:39:31;;;;;;;1999.90;999.90;;;;;;;;;;5115122;27;20437;-73
2022/06/18 02:42:02;;;;;;;1999.90;999.90;;;;;;;;;;5095382;27;20468;-72
2022/06/18 02:44:30;;;;;;;1999.90;999.90;;;;;;;;;;5096710;27;20496;-74
2022/06/18 02:47:01;;;;;;;1999.90;999.90;;;;;;;;;;5116412;27;20903;-74
2022/06/18 02:49:29;;;;;;;1999.90;999.90;;;;;;;;;;5111789;27;20460;-72
2022/06/18 02:51:57;;;;;;;1999.90;999.90;;;;;;;;;;5109496;27;20385;-73
2022/06/18 02:54:25;;;;;;;1999.90;999.90;;;;;;;;;;5117048;27;20489;-72
2022/06/18 02:56:52;;;;;;;1999.90;999.90;;;;;;;;;;5118008;27;20891;-71
2022/06/18 02:59:20;;;;;;;1999.90;999.90;;;;;;;;;;5111308;27;21658;-72
2022/06/18 03:01:48;;;;;;;1999.90;999.90;;;;;;;;;;5111802;27;20406;-72
2022/06/18 03:04:18;;;;;;;1999.90;999.90;;;;;;;;;;5114442;27;20412;-72
2022/06/18 03:06:47;;;;;;;1999.90;999.90;;;;;;;;;;5129971;27;20452;-73
2022/06/18 03:09:14;;;;;;;1999.90;999.90;;;;;;;;;;5114603;27;20486;-71
2022/06/18 03:14:31;;;;;;;1999.90;999.90;;;;;;;;;;5098445;27;20465;-72
2022/06/18 03:16:59;;;;;;;1999.90;999.90;;;;;;;;;;5115666;27;20907;-72
2022/06/18 03:19:34;;;;;;;1999.90;999.90;;;;;;;;;;5093286;27;20385;-73
2022/06/18 03:22:04;;;;;;;1999.90;999.90;;;;;;;;;;5097162;27;20420;-72
2022/06/18 03:24:32;;;;;;;1999.90;999.90;;;;;;;;;;5111569;27;20477;-73
2022/06/18 03:27:00;;;;;;;1999.90;999.90;;;;;;;;;;5112761;27;20382;-73
2022/06/18 03:29:28;;;;;;;1999.90;999.90;;;;;;;;;;5099586;27;20398;-73
2022/06/18 03:31:56;;;;;;;1999.90;999.90;;;;;;;;;;5113493;27;20382;-72
2022/06/18 03:34:28;;;;;;;1999.90;999.90;;;;;;;;;;5099031;27;20927;-73
2022/06/18 03:36:57;;;;;;;1999.90;999.90;;;;;;;;;;5115114;27;20503;-72
2022/06/18 03:39:26;;;;;;;1999.90;999.90;;;;;;;;;;5105291;27;20425;-72
2022/06/18 03:41:54;;;;;;;1999.90;999.90;;;;;;;;;;5110830;27;20435;-72
2022/06/18 03:44:24;;;;;;;1999.90;999.90;;;;;;;;;;5115657;27;20442;-72
2022/06/18 03:46:52;;;;;;;1999.90;999.90;;;;;;;;;;5116284;27;20400;-73
2022/06/18 03:49:27;;;;;;;1999.90;999.90;;;;;;;;;;5096369;27;20402;-73
2022/06/18 03:52:00;;;;;;;1999.90;999.90;;;;;;;;;;5098518;27;20762;-73
2022/06/18 03:54:27;;;;;;;1999.90;999.90;;;;;;;;;;5115944;27;20405;-72
2022/06/18 03:56:57;;;;;;;1999.90;999.90;;;;;;;;;;5099802;27;20429;-73
2022/06/18 03:59:26;;;;;;;1999.90;999.90;;;;;;;;;;5100160;27;20424;-73
2022/06/18 04:01:54;;;;;;;1999.90;999.90;;;;;;;;;;5114193;27;20392;-73
2022/06/18 04:04:27;;;;;;;1999.90;999.90;;;;;;;;;;5113841;27;20421;-73
2022/06/18 04:06:56;;;;;;;1999.90;999.90;;;;;;;;;;5112062;27;20414;-72
2022/06/18 04:09:50;;;;;;;1999.90;999.90;;;;;;;;;;5113261;27;20421;-73
2022/06/18 04:12:23;;;;;;;1999.90;999.90;;;;;;;;;;5097404;27;20591;-72
2022/06/18 04:15:13;;;;;;;1999.90;999.90;;;;;;;;;;5109641;27;21833;-73
2022/06/18 04:18:07;;;;;;;1999.90;999.90;;;;;;;;;;5110869;27;20412;-74
2022/06/18 04:20:36;;;;;;;1999.90;999.90;;;;;;;;;;5116152;27;20850;-75
2022/06/18 04:23:09;;;;;;;1999.90;999.90;;;;;;;;;;5100789;27;20965;-74
2022/06/18 04:25:40;;;;;;;1999.90;999.90;;;;;;;;;;5113381;27;20467;-74
2022/06/18 04:28:11;;;;;;;1999.90;999.90;;;;;;;;;;5115800;27;20472;-74
2022/06/18 04:30:40;;;;;;;1999.90;999.90;;;;;;;;;;5115724;27;20414;-74
2022/06/18 04:33:13;;;;;;;1999.90;999.90;;;;;;;;;;5116633;27;20463;-73
2022/06/18 04:35:53;;;;;;;1999.90;999.90;;;;;;;;;;5088627;27;20401;-74
2022/06/18 04:38:22;;;;;;;1999.90;999.90;;;;;;;;;;5105050;27;20791;-74
2022/06/18 04:41:11;;;;;;;1999.90;999.90;;;;;;;;;;5113700;27;20385;-75
2022/06/18 04:43:41;;;;;;;1999.90;999.90;;;;;;;;;;5099364;27;20435;-74
2022/06/18 04:46:10;;;;;;;1999.90;999.90;;;;;;;;;;5100852;27;20420;-75
2022/06/18 04:48:41;;;;;;;1999.90;999.90;;;;;;;;;;5116891;27;20382;-72
2022/06/18 04:51:09;;;;;;;1999.90;999.90;;;;;;;;;;5111726;27;20410;-74
2022/06/18 04:53:37;;;;;;;1999.90;999.90;;;;;;;;;;5098582;27;20385;-75
2022/06/18 04:56:08;;;;;;;1999.90;999.90;;;;;;;;;;5118088;27;20410;-74
2022/06/18 04:58:39;;;;;;;1999.90;999.90;;;;;;;;;;5100262;27;20401;-74
2022/06/18 05:01:08;;;;;;;1999.90;999.90;;;;;;;;;;5097572;27;20526;-74
2022/06/18 05:03:50;;;;;;;1999.90;999.90;;;;;;;;;;5118379;27;20467;-75
2022/06/18 05:06:37;;;;;;;1999.90;999.90;;;;;;;;;;5121500;27;20445;-74
2022/06/18 05:09:12;;;;;;;1999.90;999.90;;;;;;;;;;5102891;27;20960;-73
2022/06/18 05:12:18;;;;;;;1999.90;999.90;;;;;;;;;;5106836;27;20428;-73
2022/06/18 05:14:58;;;;;;;1999.90;999.90;;;;;;;;;;5088298;27;20408;-74
2022/06/18 05:17:28;;;;;;;1999.90;999.90;;;;;;;;;;5102279;27;20467;-74
2022/06/18 05:19:56;;;;;;;1999.90;999.90;;;;;;;;;;5097720;27;20440;-74
2022/06/18 05:22:25;;;;;;;1999.90;999.90;;;;;;;;;;5098824;27;20409;-74
2022/06/18 05:24:59;;;;;;;1999.90;999.90;;;;;;;;;;5116377;27;20424;-74
2022/06/18 05:27:31;;;;;;;1999.90;999.90;;;;;;;;;;5102619;27;20389;-73
2022/06/18 05:30:05;;;;;;;1999.90;999.90;;;;;;;;;;5116884;27;20442;-73
2022/06/18 05:32:42;;;;;;;1999.90;999.90;;;;;;;;;;5117627;27;20406;-75
2022/06/18 05:35:10;;;;;;;1999.90;999.90;;;;;;;;;;5117248;27;20422;-74
2022/06/18 05:37:39;;;;;;;1999.90;999.90;;;;;;;;;;5117623;27;20464;-74
2022/06/18 05:40:08;;;;;;;1999.90;999.90;;;;;;;;;;5112872;27;20846;-74
2022/06/18 05:42:36;;;;;;;1999.90;999.90;;;;;;;;;;5113702;27;20475;-74
2022/06/18 05:45:06;;;;;;;1999.90;999.90;;;;;;;;;;5099764;27;20476;-74
2022/06/18 05:47:34;;;;;;;1999.90;999.90;;;;;;;;;;5119404;27;20496;-70
2022/06/18 05:50:03;;;;;;;1999.90;999.90;;;;;;;;;;5116804;27;20473;-70
2022/06/18 05:52:34;;;;;;;1999.90;999.90;;;;;;;;;;5100783;27;21192;-70
2022/06/18 05:55:13;;;;;;;1999.90;999.90;;;;;;;;;;5114545;27;20402;-70
2022/06/18 05:57:48;;;;;;;1999.90;999.90;;;;;;;;;;5114892;27;20440;-71
2022/06/18 06:00:27;;;;;;;1999.90;999.90;;;;;;;;;;5097637;27;20413;-70
2022/06/18 06:02:58;;;;;;;1999.90;999.90;;;;;;;;;;5089324;27;20766;-70
2022/06/18 06:05:26;;;;;;;1999.90;999.90;;;;;;;;;;5117515;27;20404;-70
2022/06/18 06:07:53;;;;;;;1999.90;999.90;;;;;;;;;;5117543;27;20409;-70
2022/06/18 06:13:09;;;;;;;1999.90;999.90;;;;;;;;;;5114883;27;20421;-71
2022/06/18 06:15:39;;;;;;;1999.90;999.90;;;;;;;;;;5113169;27;20389;-70
2022/06/18 06:18:09;;;;;;;1999.90;999.90;;;;;;;;;;5113561;27;21401;-70
2022/06/18 06:20:38;;;;;;;1999.90;999.90;;;;;;;;;;5113777;27;20390;-70
2022/06/18 06:23:06;;;;;;;1999.90;999.90;;;;;;;;;;5117797;27;21461;-70
2022/06/18 06:25:34;;;;;;;1999.90;999.90;;;;;;;;;;5105035;27;20390;-70
2022/06/18 06:28:02;;;;;;;1999.90;999.90;;;;;;;;;;5099425;27;21713;-71
2022/06/18 06:30:29;;;;;;;1999.90;999.90;;;;;;;;;;5115033;27;20380;-70
2022/06/18 06:32:59;;;;;;;1999.90;999.90;;;;;;;;;;5114086;27;20443;-70
2022/06/18 06:35:26;;;;;;;1999.90;999.90;;;;;;;;;;5114019;27;20466;-70
2022/06/18 06:37:54;;;;;;;1999.90;999.90;;;;;;;;;;5117816;27;20421;-70
2022/06/18 06:40:22;;;;;;;1999.90;999.90;;;;;;;;;;5098533;27;20425;-71
2022/06/18 06:42:50;;;;;;;1999.90;999.90;;;;;;;;;;5107602;27;20421;-70
2022/06/18 06:45:20;;;;;;;1999.90;999.90;;;;;;;;;;5116764;27;21234;-70
2022/06/18 06:47:48;;;;;;;1999.90;999.90;;;;;;;;;;5115681;27;20422;-72
2022/06/18 06:50:19;;;;;;;1999.90;999.90;;;;;;;;;;5117596;27;20394;-69
2022/06/18 06:52:48;;;;;;;1999.90;999.90;;;;;;;;;;5118738;27;20397;-69
2022/06/18 06:58:06;;;;;;;1999.90;999.90;;;;;;;;;;5119447;27;20405;-71
2022/06/18 07:00:35;;;;;;;1999.90;999.90;;;;;;;;;;5117919;27;20879;-71
2022/06/18 07:03:03;;;;;;;1999.90;999.90;;;;;;;;;;5119408;27;20400;-71
2022/06/18 07:05:32;;;;;;;1999.90;999.90;;;;;;;;;;5115224;27;20389;-72
2022/06/18 07:08:00;;;;;;;1999.90;999.90;;;;;;;;;;5110737;27;20541;-72
2022/06/18 07:10:28;;;;;;;1999.90;999.90;;;;;;;;;;5116510;27;20955;-73
2022/06/18 07:12:55;;;;;;;1999.90;999.90;;;;;;;;;;5112997;27;22413;-72
2022/06/18 07:15:23;;;;;;;1999.90;999.90;;;;;;;;;;5105475;27;20413;-72
2022/06/18 07:17:52;;;;;;;1999.90;999.90;;;;;;;;;;5116109;27;20421;-74
2022/06/18 07:20:21;;;;;;;1999.90;999.90;;;;;;;;;;5108841;27;20385;-72
2022/06/18 07:22:50;;;;;;;1999.90;999.90;;;;;;;;;;5104710;27;22015;-73
2022/06/18 07:25:18;;;;;;;1999.90;999.90;;;;;;;;;;5107928;27;20398;-72
2022/06/18 07:27:45;;;;;;;1999.90;999.90;;;;;;;;;;5112771;27;20484;-71
2022/06/18 07:30:13;;;;;;;1999.90;999.90;;;;;;;;;;5087358;27;20931;-73
2022/06/18 07:32:45;;;;;;;1999.90;999.90;;;;;;;;;;5101976;27;20423;-72
2022/06/18 07:35:17;;;;;;;1999.90;999.90;;;;;;;;;;5104803;27;20575;-73
2022/06/18 07:37:45;;;;;;;1999.90;999.90;;;;;;;;;;5108051;27;21144;-73
2022/06/18 07:40:14;;;;;;;1999.90;999.90;;;;;;;;;;5109468;27;20390;-72
2022/06/18 07:42:44;;;;;;;1999.90;999.90;;;;;;;;;;5094546;27;20410;-72
2022/06/18 07:45:15;;;;;;;1999.90;999.90;;;;;;;;;;5107247;27;20393;-73
2022/06/18 07:47:45;;;;;;;1999.90;999.90;;;;;;;;;;5107017;27;20412;-73
2022/06/18 07:50:13;;;;;;;1999.90;999.90;;;;;;;;;;5112985;27;20856;-74
2022/06/18 07:52:40;;;;;;;1999.90;999.90;;;;;;;;;;5100723;27;20479;-73
2022/06/18 07:55:11;;;;;;;1999.90;999.90;;;;;;;;;;5106638;27;20392;-73
2022/06/18 07:57:42;;;;;;;1999.90;999.90;;;;;;;;;;5108595;27;20486;-73
2022/06/18 08:00:11;;;;;;;1999.90;999.90;;;;;;;;;;5107798;27;20406;-73
2022/06/18 08:02:42;;;;;;;1999.90;999.90;;;;;;;;;;5110085;27;20394;-73
2022/06/18 08:05:12;;;;;;;1999.90;999.90;;;;;;;;;;5109266;27;20393;-72
2022/06/18 08:07:40;;;;;;;1999.90;999.90;;;;;;;;;;5102625;27;20421;-71
2022/06/18 08:10:08;;;;;;;1999.90;999.90;;;;;;;;;;5106183;27;20378;-70
2022/06/18 08:12:36;;;;;;;1999.90;999.90;;;;;;;;;;5103344;27;20952;-72
2022/06/18 08:15:06;;;;;;;1999.90;999.90;;;;;;;;;;5104618;27;20413;-74
2022/06/18 08:17:34;;;;;;;1999.90;999.90;;;;;;;;;;5089705;27;20404;-72
2022/06/18 08:20:01;;;;;;;1999.90;999.90;;;;;;;;;;5101445;27;20887;-72
2022/06/18 08:22:30;;;;;;;1999.90;999.90;;;;;;;;;;5107348;27;20437;-73
2022/06/18 08:24:58;;;;;;;1999.90;999.90;;;;;;;;;;5129182;27;20406;-73
2022/06/18 08:27:27;;;;;;;1999.90;999.90;;;;;;;;;;5118096;27;20405;-74
2022/06/18 08:29:54;;;;;;;1999.90;999.90;;;;;;;;;;5106238;27;20390;-73
2022/06/18 08:32:24;;;;;;;1999.90;999.90;;;;;;;;;;5109341;27;21209;-74
2022/06/18 08:34:52;;;;;;;1999.90;999.90;;;;;;;;;;5108822;27;20395;-73
2022/06/18 08:37:19;;;;;;;1999.90;999.90;;;;;;;;;;5110992;27;20401;-73
2022/06/18 08:39:47;;;;;;;1999.90;999.90;;;;;;;;;;5129961;27;20520;-73
2022/06/18 08:42:23;;;;;;;1999.90;999.90;;;;;;;;;;5118810;27;20470;-72
2022/06/18 08:45:02;;;;;;;1999.90;999.90;;;;;;;;;;5112927;27;20467;-71
2022/06/18 08:47:50;;;;;;;1999.90;999.90;;;;;;;;;;5107939;27;20509;-72
2022/06/18 08:50:39;;;;;;;1999.90;999.90;;;;;;;;;;5116401;27;20380;-72
2022/06/18 08:53:16;;;;;;;1999.90;999.90;;;;;;;;;;5099054;27;21210;-72
2022/06/18 08:55:49;;;;;;;1999.90;999.90;;;;;;;;;;5109294;27;20938;-71
2022/06/18 08:58:24;;;;;;;1999.90;999.90;;;;;;;;;;5103949;27;20414;-71
2022/06/18 09:00:55;;;;;;;1999.90;999.90;;;;;;;;;;5110006;27;20394;-74
2022/06/18 09:03:28;;;;;;;1999.90;999.90;;;;;;;;;;5090633;27;20455;-71
2022/06/18 09:06:04;;;;;;;1999.90;999.90;;;;;;;;;;5106501;27;20378;-72
2022/06/18 09:08:42;;;;;;;1999.90;999.90;;;;;;;;;;5111935;27;20467;-75
2022/06/18 09:11:16;;;;;;;1999.90;999.90;;;;;;;;;;5110354;27;20382;-72
2022/06/18 09:13:46;;;;;;;1999.90;999.90;;;;;;;;;;5112258;27;20418;-71
2022/06/18 09:16:16;;;;;;;1999.90;999.90;;;;;;;;;;5114300;27;20394;-73
2022/06/18 09:18:48;;;;;;;1999.90;999.90;;;;;;;;;;5112828;27;20939;-71
2022/06/18 09:21:19;;;;;;;1999.90;999.90;;;;;;;;;;5106647;27;22606;-70
2022/06/18 09:23:50;;;;;;;1999.90;999.90;;;;;;;;;;5104766;27;20410;-70
2022/06/18 09:26:19;;;;;;;1999.90;999.90;;;;;;;;;;5105853;27;20402;-71
2022/06/18 09:28:50;;;;;;;1999.90;999.90;;;;;;;;;;5104054;27;20455;-70
2022/06/18 09:31:21;;;;;;;1999.90;999.90;;;;;;;;;;5105930;27;21474;-71
2022/06/18 09:33:55;;;;;;;1999.90;999.90;;;;;;;;;;5089415;27;20543;-72
2022/06/18 09:36:24;;;;;;;1999.90;999.90;;;;;;;;;;5115259;27;20380;-70
2022/06/18 09:39:00;;;;;;;1999.90;999.90;;;;;;;;;;5093013;27;20394;-71
2022/06/18 09:41:29;;;;;;;1999.90;999.90;;;;;;;;;;5116041;27;20408;-71
2022/06/18 09:44:00;;;;;;;1999.90;999.90;;;;;;;;;;5117781;27;20385;-70
2022/06/18 09:46:31;;;;;;;1999.90;999.90;;;;;;;;;;5085209;27;20872;-71
2022/06/18 09:49:00;;;;;;;1999.90;999.90;;;;;;;;;;5102435;27;20427;-70
2022/06/18 09:51:38;;;;;;;1999.90;999.90;;;;;;;;;;5101739;27;20395;-71
2022/06/18 09:54:06;;;;;;;1999.90;999.90;;;;;;;;;;5103536;27;20848;-73
2022/06/18 09:56:38;;;;;;;1999.90;999.90;;;;;;;;;;5108005;27;20420;-71
2022/06/18 09:59:07;;;;;;;1999.90;999.90;;;;;;;;;;5103061;27;20406;-74
2022/06/18 10:01:37;;;;;;;1999.90;999.90;;;;;;;;;;5107186;27;20421;-77
2022/06/18 10:06:55;;;;;;;1999.90;999.90;;;;;;;;;;5100251;27;21267;-76
2022/06/18 10:09:41;;;;;;;1999.90;999.90;;;;;;;;;;5114846;27;20923;-75
2022/06/18 10:12:16;;;;;;;1999.90;999.90;;;;;;;;;;5107255;27;20495;-74
2022/06/18 10:14:45;;;;;;;1999.90;999.90;;;;;;;;;;5113346;27;20418;-75
2022/06/18 10:17:17;;;;;;;1999.90;999.90;;;;;;;;;;5111080;27;20402;-74
2022/06/18 10:19:52;;;;;;;1999.90;999.90;;;;;;;;;;5107773;27;20409;-75
2022/06/18 10:22:24;;;;;;;1999.90;999.90;;;;;;;;;;5103064;27;21377;-75
2022/06/18 10:24:55;;;;;;;1999.90;999.90;;;;;;;;;;5110331;27;20514;-76
2022/06/18 10:27:31;;;;;;;1999.90;999.90;;;;;;;;;;5111491;27;20417;-75
2022/06/18 10:30:05;;;;;;;1999.90;999.90;;;;;;;;;;5108546;27;20884;-75
2022/06/18 10:32:40;;;;;;;1999.90;999.90;;;;;;;;;;5113855;27;21555;-73
2022/06/18 10:35:19;;;;;;;1999.90;999.90;;;;;;;;;;5112509;27;20537;-75
2022/06/18 10:37:52;;;;;;;1999.90;999.90;;;;;;;;;;5110255;27;20402;-75
2022/06/18 10:40:39;;;;;;;1999.90;999.90;;;;;;;;;;5115027;27;20412;-75
2022/06/18 10:43:15;;;;;;;1999.90;999.90;;;;;;;;;;5115706;27;20397;-74
2022/06/18 10:45:50;;;;;;;1999.90;999.90;;;;;;;;;;5122291;27;20376;-74
2022/06/18 10:48:20;;;;;;;1999.90;999.90;;;;;;;;;;5129979;27;20467;-76
2022/06/18 10:50:53;;;;;;;1999.90;999.90;;;;;;;;;;5137991;22;20405;-75
2022/06/18 10:53:25;;;;;;;1999.90;999.90;;;;;;;;;;5081865;27;20520;-74
2022/06/18 10:56:05;;;;;;;1999.90;999.90;;;;;;;;;;5107274;27;20449;-75
2022/06/18 10:58:55;;;;;;;1999.90;999.90;;;;;;;;;;5105795;27;20409;-74
2022/06/18 11:01:39;;;;;;;1999.90;999.90;;;;;;;;;;5128884;22;21257;-83
2022/06/18 11:04:33;;;;;;;1999.90;999.90;;;;;;;;;;5133482;27;20428;-80
2022/06/18 11:07:13;;;;;;;1999.90;999.90;;;;;;;;;;5134243;27;21830;-80
2022/06/18 11:09:55;;;;;;;1999.90;999.90;;;;;;;;;;5092615;27;20347;-80
2022/06/18 11:12:41;;;;;;;1999.90;999.90;;;;;;;;;;5125194;27;20838;-79
2022/06/18 11:15:40;;;;;;;1999.90;999.90;;;;;;;;;;5092075;27;20360;-79
2022/06/18 11:18:29;;;;;;;1999.90;999.90;;;;;;;;;;5083416;28;20387;-80
2022/06/18 11:21:42;;;;;;;1999.90;999.90;;;;;;;;;;5093996;27;20383;-82
2022/06/18 11:24:26;;;;;;;1999.90;999.90;;;;;;;;;;5088099;27;20936;-80
2022/06/18 11:26:59;;;;;;;1999.90;999.90;;;;;;;;;;5069330;27;21393;-80
2022/06/18 11:29:31;;;;;;;1999.90;999.90;;;;;;;;;;5075686;27;21148;-81
2022/06/18 11:32:00;;;;;;;1999.90;999.90;;;;;;;;;;5072133;27;20500;-80
2022/06/18 11:34:29;;;;;;;1999.90;999.90;;;;;;;;;;5095073;27;20494;-81
2022/06/18 11:37:01;;;;;;;1999.90;999.90;;;;;;;;;;5096794;27;20415;-82
2022/06/18 11:39:35;;;;;;;1999.90;999.90;;;;;;;;;;5078147;27;20434;-80
2022/06/18 11:42:08;;;;;;;1999.90;999.90;;;;;;;;;;5075939;27;20395;-81
2022/06/18 11:44:38;;;;;;;1999.90;999.90;;;;;;;;;;5064000;27;20473;-81
2022/06/18 11:47:09;;;;;;;1999.90;999.90;;;;;;;;;;5076200;27;20407;-82
2022/06/18 11:49:42;;;;;;;1999.90;999.90;;;;;;;;;;5077609;27;20430;-79
2022/06/18 11:52:13;;;;;;;1999.90;999.90;;;;;;;;;;5077373;28;20400;-79
2022/06/18 11:54:51;;;;;;;1999.90;999.90;;;;;;;;;;5082424;28;20417;-81
2022/06/18 11:57:24;;;;;;;1999.90;999.90;;;;;;;;;;5090158;27;20394;-80
2022/06/18 11:59:54;;;;;;;1999.90;999.90;;;;;;;;;;5078792;27;20415;-82
2022/06/18 12:02:25;;;;;;;1999.90;999.90;;;;;;;;;;5078719;28;20405;-82
2022/06/18 12:04:55;;;;;;;1999.90;999.90;;;;;;;;;;5096265;27;20407;-82
2022/06/18 12:07:31;;;;;;;1999.90;999.90;;;;;;;;;;5053621;28;21171;-83
2022/06/18 12:10:03;;;;;;;1999.90;999.90;;;;;;;;;;5077303;27;20417;-81
2022/06/18 12:12:55;;;;;;;1999.90;999.90;;;;;;;;;;5071281;27;20402;-81
2022/06/18 12:15:27;;;;;;;1999.90;999.90;;;;;;;;;;5099927;27;20953;-81
2022/06/18 12:17:58;;;;;;;1999.90;999.90;;;;;;;;;;5101590;27;20477;-83
2022/06/18 12:20:36;;;;;;;1999.90;999.90;;;;;;;;;;5066476;28;21403;-83
2022/06/18 12:23:08;;;;;;;1999.90;999.90;;;;;;;;;;5085844;28;20478;-82
2022/06/18 12:25:41;;;;;;;1999.90;999.90;;;;;;;;;;5105182;27;20411;-82
2022/06/18 12:28:13;;;;;;;1999.90;999.90;;;;;;;;;;5082598;27;20865;-81
2022/06/18 12:30:44;;;;;;;1999.90;999.90;;;;;;;;;;5084544;27;20399;-83
2022/06/18 12:33:16;;;;;;;1999.90;999.90;;;;;;;;;;5079640;27;20415;-79
2022/06/18 12:35:48;;;;;;;1999.90;999.90;;;;;;;;;;5105423;27;20411;-78
2022/06/18 12:38:23;;;;;;;1999.90;999.90;;;;;;;;;;5066186;27;20728;-78
2022/06/18 12:40:56;;;;;;;1999.90;999.90;;;;;;;;;;5067247;27;20464;-81
2022/06/18 12:43:27;;;;;;;1999.90;999.90;;;;;;;;;;5081491;27;20823;-82
2022/06/18 12:46:01;;;;;;;1999.90;999.90;;;;;;;;;;5082369;27;20403;-80
2022/06/18 12:48:35;;;;;;;1999.90;999.90;;;;;;;;;;5087328;27;20379;-82
2022/06/18 12:51:06;;;;;;;1999.90;999.90;;;;;;;;;;5099334;27;21710;-81
2022/06/18 12:53:49;;;;;;;1999.90;999.90;;;;;;;;;;5081666;28;20486;-81
2022/06/18 12:56:22;;;;;;;1999.90;999.90;;;;;;;;;;5092136;27;20414;-82
2022/06/18 12:58:54;;;;;;;1999.90;999.90;;;;;;;;;;5066971;27;20433;-82
2022/06/18 13:01:25;;;;;;;1999.90;999.90;;;;;;;;;;5104116;27;20522;-83
2022/06/18 13:04:11;;;;;;;1999.90;999.90;;;;;;;;;;5078603;27;20494;-82
2022/06/18 13:06:43;;;;;;;1999.90;999.90;;;;;;;;;;5064989;27;20399;-82
2022/06/18 13:09:19;;;;;;;1999.90;999.90;;;;;;;;;;5089449;27;20407;-82
2022/06/18 13:11:54;;;;;;;1999.90;999.90;;;;;;;;;;5080744;27;20407;-81
2022/06/18 13:14:31;;;;;;;1999.90;999.90;;;;;;;;;;5084478;27;20695;-86
2022/06/18 13:17:02;;;;;;;1999.90;999.90;;;;;;;;;;5078436;27;20415;-80
2022/06/18 13:19:44;;;;;;;1999.90;999.90;;;;;;;;;;5102738;27;20383;-85
2022/06/18 13:22:13;;;;;;;1999.90;999.90;;;;;;;;;;5094538;27;20478;-82
2022/06/18 13:30:32;;;;;;;1999.90;999.90;;;;;;;;;;5079173;27;20399;-82
2022/06/18 13:33:03;;;;;;;1999.90;999.90;;;;;;;;;;5079111;27;20417;-82
2022/06/18 13:35:34;;;;;;;1999.90;999.90;;;;;;;;;;5080295;27;20411;-82
2022/06/18 13:38:05;;;;;;;1999.90;999.90;;;;;;;;;;5099640;27;21230;-82
2022/06/18 13:40:36;;;;;;;1999.90;999.90;;;;;;;;;;5079901;27;20428;-82
2022/06/18 13:43:08;;;;;;;1999.90;999.90;;;;;;;;;;5064610;27;20407;-81
2022/06/18 13:45:45;;;;;;;1999.90;999.90;;;;;;;;;;5091735;27;20490;-86
2022/06/18 13:48:17;;;;;;;1999.90;999.90;;;;;;;;;;5090601;27;21212;-81
2022/06/18 13:50:46;;;;;;;1999.90;999.90;;;;;;;;;;5091039;27;20449;-82
2022/06/18 13:53:28;;;;;;;1999.90;999.90;;;;;;;;;;5059264;27;20422;-83
2022/06/18 13:55:56;;;;;;;1999.90;999.90;;;;;;;;;;5074749;27;20483;-85
2022/06/18 13:58:27;;;;;;;1999.90;999.90;;;;;;;;;;5058572;27;20454;-83
2022/06/18 14:01:04;;;;;;;1999.90;999.90;;;;;;;;;;5079841;27;20397;-83
2022/06/18 14:03:36;;;;;;;1999.90;999.90;;;;;;;;;;5076619;28;20929;-85
2022/06/18 14:06:06;;;;;;;1999.90;999.90;;;;;;;;;;5095196;27;21080;-83
2022/06/18 14:08:35;;;;;;;1999.90;999.90;;;;;;;;;;5083472;28;20509;-81
2022/06/18 14:11:07;;;;;;;1999.90;999.90;;;;;;;;;;5071674;27;20487;-85
2022/06/18 14:13:47;;;;;;;1999.90;999.90;;;;;;;;;;5057377;27;21003;-83
2022/06/18 14:16:26;;;;;;;1999.90;999.90;;;;;;;;;;5099770;27;20490;-82
2022/06/18 14:19:04;;;;;;;1999.90;999.90;;;;;;;;;;5081159;27;20411;-84
2022/06/18 14:21:34;;;;;;;1999.90;999.90;;;;;;;;;;5098658;27;20831;-84
2022/06/18 14:24:02;;;;;;;1999.90;999.90;;;;;;;;;;5062928;27;20433;-83
2022/06/18 14:26:41;;;;;;;1999.90;999.90;;;;;;;;;;5081340;28;20486;-87
2022/06/18 14:29:11;;;;;;;1999.90;999.90;;;;;;;;;;5079143;27;21110;-85